Morforte De Lemos, Spain
Current Conditions -  °F | °C
As of 3:30 PM on Saturday 25 Oct 2014 (Local Time) from LEST Reporting Station
Clear Clear  
Wind Chill: 25°   Ceiling: Unl
Heat Index: 26°   Visibility: 6mi
Dew Point: 15°   Wind: 3mph
Humidity: 54%   Direction: 50°NE
Pressure: 30.12"   Gusts: NA
Location:  42.52°N, 7.5°W
Report Text: LEST 251330Z 05003KT 350V090 CAVOK 25/15 Q1020 NOSIG
Loading
Personal Weather Stations






























Interactive Weather Map
Tropical Storm Tracking
New forecast layout! Learn more

10-Day Weather Forecast

Advertisements
Track Severe Weather on mobile